Time;durP1;ratioP1;P1;durP2;ratioP2;P2;SDS_P1;SDS_P2;PMS_P1;PMS_P2;Temp;Humidity;BMP_temperature;BMP_pressure;BME280_temperature;BME280_humidity;BME280_pressure;Samples;Min_cycle;Max_cycle;Signal;HPM_P1;HPM_P2
2022/11/22 05:01:27;;;;;;;7.60;6.17;;;6.60;99.90;;;;;;5522307;23;20886;-74
2022/11/22 05:03:54;;;;;;;9.87;6.20;;;6.60;99.90;;;;;;4946613;28;20504;-74
2022/11/22 05:06:20;;;;;;;7.30;5.30;;;6.60;99.90;;;;;;4947453;28;20460;-74
2022/11/22 05:08:47;;;;;;;8.50;6.00;;;6.60;99.90;;;;;;4947698;28;20464;-74
2022/11/22 05:11:14;;;;;;;9.07;5.40;;;6.60;99.90;;;;;;4947782;28;20859;-74
2022/11/22 05:13:42;;;;;;;12.80;6.17;;;6.60;99.90;;;;;;4946629;28;20821;-74
2022/11/22 05:16:11;;;;;;;9.97;6.27;;;6.60;99.90;;;;;;4946969;28;20472;-74
2022/11/22 05:18:40;;;;;;;7.10;5.87;;;6.50;99.90;;;;;;4946818;28;20461;-74
2022/11/22 05:21:09;;;;;;;6.40;5.30;;;6.50;99.90;;;;;;4947839;28;20499;-74
2022/11/22 05:23:53;;;;;;;7.77;5.70;;;6.50;99.90;;;;;;4946553;28;20493;-75
2022/11/22 05:26:21;;;;;;;10.90;5.70;;;6.50;99.90;;;;;;4947428;28;20898;-75
2022/11/22 05:28:48;;;;;;;11.23;5.80;;;6.50;99.90;;;;;;4946115;28;20831;-75
2022/11/22 05:31:17;;;;;;;8.47;5.93;;;6.50;99.90;;;;;;4946812;28;20477;-66
2022/11/22 05:33:46;;;;;;;9.37;5.60;;;6.50;99.90;;;;;;4947808;28;20484;-65
2022/11/22 05:36:13;;;;;;;8.80;5.70;;;6.50;99.90;;;;;;4951125;28;20465;-64
2022/11/22 05:38:39;;;;;;;8.00;5.20;;;6.40;99.90;;;;;;4950765;28;20465;-64
2022/11/22 05:41:08;;;;;;;11.90;5.87;;;6.30;99.90;;;;;;4950709;28;20477;-65
2022/11/22 05:43:35;;;;;;;8.37;5.67;;;6.30;99.90;;;;;;4951397;28;20496;-76
2022/11/22 05:46:07;;;;;;;8.43;5.70;;;6.20;99.90;;;;;;4952514;28;20457;-75
2022/11/22 05:48:33;;;;;;;7.57;5.17;;;6.30;99.90;;;;;;4951783;28;20461;-76
2022/11/22 05:51:05;;;;;;;6.83;4.97;;;6.20;99.90;;;;;;4952147;28;20489;-76
2022/11/22 05:53:33;;;;;;;8.10;6.50;;;6.20;99.90;;;;;;4950684;28;20826;-76
2022/11/22 05:56:04;;;;;;;7.50;5.80;;;6.20;99.90;;;;;;4951119;28;20968;-76
2022/11/22 05:58:30;;;;;;;8.83;6.20;;;6.20;99.90;;;;;;4950841;28;20495;-76
2022/11/22 06:01:03;;;;;;;8.23;6.37;;;6.20;99.90;;;;;;4949576;28;20500;-78
2022/11/22 06:03:29;;;;;;;14.83;7.93;;;6.20;99.90;;;;;;4951208;28;20494;-77
2022/11/22 06:05:56;;;;;;;10.97;6.87;;;6.20;99.90;;;;;;4956060;28;20489;-79
2022/11/22 06:08:24;;;;;;;9.50;6.90;;;6.20;99.90;;;;;;4952304;29;20454;-78
2022/11/22 06:10:51;;;;;;;9.10;7.40;;;6.10;99.90;;;;;;4951665;28;21448;-77
2022/11/22 06:13:18;;;;;;;15.10;9.63;;;6.10;99.90;;;;;;4950906;28;20476;-78
2022/11/22 06:15:44;;;;;;;16.80;10.33;;;6.00;99.90;;;;;;4949889;28;20469;-77
2022/11/22 06:18:11;;;;;;;14.63;10.37;;;6.00;99.90;;;;;;4951260;28;20958;-76
2022/11/22 06:20:38;;;;;;;14.93;10.10;;;6.00;99.90;;;;;;4951077;29;20477;-77
2022/11/22 06:23:05;;;;;;;15.73;9.77;;;6.00;99.90;;;;;;4950308;29;20588;-77
2022/11/22 06:25:33;;;;;;;12.20;9.03;;;6.00;99.90;;;;;;4950206;28;20822;-77
2022/11/22 06:28:00;;;;;;;13.87;8.87;;;6.00;99.90;;;;;;4951110;28;20457;-77
2022/11/22 06:30:26;;;;;;;10.03;7.37;;;6.00;99.90;;;;;;4950667;28;20823;-77
2022/11/22 06:32:53;;;;;;;11.63;7.90;;;6.00;99.90;;;;;;4956627;28;20824;-77
2022/11/22 06:35:20;;;;;;;13.13;8.00;;;6.10;99.90;;;;;;4953553;28;20953;-78
2022/11/22 06:37:49;;;;;;;11.60;8.13;;;6.10;99.90;;;;;;4951839;28;20480;-79
2022/11/22 06:40:17;;;;;;;11.30;9.32;;;6.20;99.90;;;;;;4952014;28;20455;-77
2022/11/22 06:42:45;;;;;;;11.87;7.27;;;6.40;99.90;;;;;;4951046;28;20230;-79
2022/11/22 06:45:12;;;;;;;14.00;7.57;;;6.40;99.90;;;;;;4951484;28;20468;-79
2022/11/22 06:47:39;;;;;;;11.70;6.80;;;6.40;99.90;;;;;;4951852;28;20469;-78
2022/11/22 06:50:07;;;;;;;9.17;7.40;;;6.40;99.90;;;;;;4951549;28;20553;-76
2022/11/22 06:52:33;;;;;;;9.40;6.43;;;6.30;99.90;;;;;;4951528;28;20484;-77
2022/11/22 06:55:00;;;;;;;7.83;6.57;;;6.30;99.90;;;;;;4951607;28;20458;-77
2022/11/22 06:57:27;;;;;;;9.07;6.87;;;6.30;99.90;;;;;;4950871;28;20465;-78
2022/11/22 06:59:55;;;;;;;10.20;6.63;;;6.30;99.90;;;;;;4950835;28;20469;-77
2022/11/22 07:02:22;;;;;;;8.10;7.00;;;6.20;99.90;;;;;;4950090;28;20997;-77
2022/11/22 07:04:49;;;;;;;9.17;7.13;;;6.20;99.90;;;;;;4950833;28;20520;-78
2022/11/22 07:07:15;;;;;;;9.60;8.10;;;6.20;99.90;;;;;;4951217;28;20465;-77
2022/11/22 07:09:42;;;;;;;19.20;12.33;;;6.20;99.90;;;;;;4951200;28;20461;-78
2022/11/22 07:12:09;;;;;;;17.50;10.40;;;6.20;99.90;;;;;;4950516;28;20485;-78
2022/11/22 07:14:36;;;;;;;9.63;7.63;;;6.20;99.90;;;;;;4950941;28;20457;-77
2022/11/22 07:17:04;;;;;;;10.30;7.17;;;6.20;99.90;;;;;;4951336;28;20457;-75
2022/11/22 07:19:32;;;;;;;9.60;7.57;;;6.20;99.90;;;;;;4951101;28;20465;-75
2022/11/22 07:21:58;;;;;;;10.83;7.90;;;6.10;99.90;;;;;;4950157;29;20491;-78
2022/11/22 07:24:25;;;;;;;10.10;7.27;;;6.10;99.90;;;;;;4950071;28;21012;-75
2022/11/22 07:26:52;;;;;;;8.90;6.83;;;6.10;99.90;;;;;;4949996;28;20458;-77
2022/11/22 07:29:19;;;;;;;10.10;6.77;;;6.10;99.90;;;;;;4950151;28;20460;-78
2022/11/22 07:31:46;;;;;;;13.10;8.90;;;6.10;99.90;;;;;;4949096;28;20907;-76
2022/11/22 07:34:14;;;;;;;14.47;9.77;;;6.10;99.90;;;;;;4950475;28;20461;-78
2022/11/22 07:36:41;;;;;;;13.37;8.33;;;6.10;99.90;;;;;;4950370;28;20472;-77
2022/11/22 07:39:08;;;;;;;11.40;8.13;;;6.20;99.90;;;;;;4951007;28;20504;-78
2022/11/22 07:41:34;;;;;;;12.70;8.40;;;6.20;99.90;;;;;;4949786;28;20513;-77
2022/11/22 07:44:01;;;;;;;12.40;8.63;;;6.20;99.90;;;;;;4949547;28;20715;-75
2022/11/22 07:46:30;;;;;;;11.77;8.33;;;6.10;99.90;;;;;;4949816;28;20942;-78
2022/11/22 07:48:57;;;;;;;11.03;8.13;;;6.10;99.90;;;;;;4949667;28;20480;-78
2022/11/22 07:51:25;;;;;;;14.40;8.97;;;6.20;99.90;;;;;;4949836;28;20606;-78
2022/11/22 07:53:52;;;;;;;11.03;8.30;;;6.20;99.90;;;;;;4949472;28;20460;-78
2022/11/22 07:56:19;;;;;;;13.37;7.77;;;6.10;99.90;;;;;;4949950;28;20473;-76
2022/11/22 07:58:46;;;;;;;10.30;7.93;;;6.20;99.90;;;;;;4950438;28;20469;-78
2022/11/22 08:01:15;;;;;;;11.03;8.03;;;6.10;99.90;;;;;;4950468;28;20500;-78
2022/11/22 08:03:43;;;;;;;10.43;7.70;;;6.10;99.90;;;;;;4949671;28;20493;-77
2022/11/22 08:06:11;;;;;;;13.40;8.17;;;6.20;99.90;;;;;;4950120;28;20462;-78
2022/11/22 08:08:40;;;;;;;13.40;8.90;;;6.20;99.90;;;;;;4949880;28;20469;-78
2022/11/22 08:11:07;;;;;;;12.70;8.73;;;6.20;99.90;;;;;;4950121;28;20489;-78
2022/11/22 08:13:34;;;;;;;11.07;8.17;;;6.20;99.90;;;;;;4949622;28;20457;-77
2022/11/22 08:16:03;;;;;;;15.47;9.20;;;6.20;99.90;;;;;;4949837;28;20469;-77
2022/11/22 08:18:30;;;;;;;12.30;8.10;;;6.20;99.90;;;;;;4949608;28;20461;-78
2022/11/22 08:21:05;;;;;;;10.73;8.33;;;6.20;99.90;;;;;;4950088;28;21264;-76
2022/11/22 08:23:32;;;;;;;12.33;7.60;;;6.20;99.90;;;;;;4949331;28;20859;-78
2022/11/22 08:26:00;;;;;;;9.03;6.10;;;6.20;99.90;;;;;;4949623;28;20480;-78
2022/11/22 08:28:27;;;;;;;14.90;6.40;;;6.20;99.90;;;;;;4950007;28;20887;-78
2022/11/22 08:31:00;;;;;;;6.60;5.60;;;6.20;99.90;;;;;;4950846;28;20483;-78
2022/11/22 08:33:27;;;;;;;11.43;5.13;;;6.20;99.90;;;;;;4949650;28;20442;-78
2022/11/22 08:35:54;;;;;;;19.40;12.17;;;6.30;99.90;;;;;;4950457;28;20466;-76
2022/11/22 08:38:21;;;;;;;23.23;17.67;;;6.30;99.90;;;;;;4950137;28;20500;-78
2022/11/22 08:40:48;;;;;;;24.43;20.00;;;6.30;99.90;;;;;;4950502;28;20477;-77
2022/11/22 08:43:16;;;;;;;22.03;17.27;;;6.40;99.90;;;;;;4950212;28;20659;-76
2022/11/22 08:45:42;;;;;;;21.87;16.23;;;6.40;99.90;;;;;;4951461;28;20469;-78
2022/11/22 08:48:09;;;;;;;16.50;14.30;;;6.40;99.90;;;;;;4951315;28;20457;-78
2022/11/22 08:50:36;;;;;;;23.00;14.37;;;6.40;99.90;;;;;;4950745;28;20485;-78
2022/11/22 08:53:03;;;;;;;36.93;24.20;;;6.40;99.90;;;;;;4950651;28;20491;-78
2022/11/22 08:55:30;;;;;;;46.30;31.70;;;6.50;99.90;;;;;;4951454;28;20466;-77
2022/11/22 08:57:58;;;;;;;21.60;19.13;;;6.50;99.90;;;;;;4951337;28;20462;-77
2022/11/22 09:00:26;;;;;;;32.73;23.70;;;6.60;99.90;;;;;;4953977;28;20461;-76
2022/11/22 09:02:53;;;;;;;36.43;24.10;;;6.50;99.90;;;;;;4953664;28;20446;-77
2022/11/22 09:05:20;;;;;;;39.40;26.20;;;6.50;99.90;;;;;;4954742;28;20568;-76
2022/11/22 09:07:47;;;;;;;38.47;27.20;;;6.50;99.90;;;;;;4955035;28;20453;-77
2022/11/22 09:10:14;;;;;;;37.47;25.87;;;6.50;99.90;;;;;;4958685;28;20461;-77
2022/11/22 09:12:43;;;;;;;30.57;22.27;;;6.50;99.90;;;;;;4955141;28;20475;-76
2022/11/22 09:15:10;;;;;;;32.63;28.23;;;6.60;99.90;;;;;;4952865;28;20464;-76
2022/11/22 09:17:39;;;;;;;44.97;33.70;;;6.60;99.90;;;;;;4952586;28;20461;-78
2022/11/22 09:20:07;;;;;;;30.30;22.07;;;6.70;99.90;;;;;;4952554;28;20467;-78
2022/11/22 09:22:33;;;;;;;23.33;18.40;;;6.70;99.90;;;;;;4952302;28;20488;-77
2022/11/22 09:25:00;;;;;;;17.47;13.40;;;6.70;99.90;;;;;;4952647;28;20497;-78
2022/11/22 09:27:27;;;;;;;15.70;11.53;;;6.80;99.90;;;;;;4954202;28;20491;-77
2022/11/22 09:29:54;;;;;;;15.33;11.70;;;6.80;99.90;;;;;;4953603;28;20465;-78
2022/11/22 09:32:21;;;;;;;22.20;16.27;;;6.90;99.90;;;;;;4953614;28;20523;-78
2022/11/22 09:34:49;;;;;;;29.40;21.00;;;6.90;99.90;;;;;;4954101;28;20954;-76
2022/11/22 09:37:18;;;;;;;21.23;16.70;;;6.90;99.90;;;;;;4954810;28;20457;-77
2022/11/22 09:39:45;;;;;;;24.70;18.70;;;7.00;99.90;;;;;;4954912;28;20465;-78
2022/11/22 09:42:41;;;;;;;25.00;18.80;;;7.00;99.90;;;;;;4954206;28;20483;-77
2022/11/22 09:45:32;;;;;;;24.40;17.90;;;7.10;99.90;;;;;;4954123;28;20497;-78
2022/11/22 09:48:06;;;;;;;25.33;14.03;;;7.10;99.90;;;;;;4954315;28;20556;-78
2022/11/22 09:50:47;;;;;;;19.03;13.87;;;7.10;99.90;;;;;;4955067;28;20487;-78
2022/11/22 09:53:17;;;;;;;20.93;13.10;;;7.20;99.90;;;;;;4953966;28;20468;-79
2022/11/22 09:55:47;;;;;;;21.60;13.00;;;7.20;99.90;;;;;;4954818;28;20485;-79
2022/11/22 09:58:25;;;;;;;17.27;11.87;;;7.30;99.90;;;;;;4955014;28;20465;-78
2022/11/22 10:00:55;;;;;;;18.40;11.97;;;7.30;99.90;;;;;;4955202;28;20480;-78
2022/11/22 10:03:29;;;;;;;17.47;10.07;;;7.30;99.90;;;;;;4954765;28;20457;-78
2022/11/22 10:06:01;;;;;;;19.40;7.50;;;7.30;99.90;;;;;;4953494;28;21277;-78
2022/11/22 10:08:40;;;;;;;9.13;6.20;;;7.40;99.90;;;;;;4954650;28;20452;-78
2022/11/22 10:11:14;;;;;;;15.80;11.37;;;7.40;99.90;;;;;;4955815;28;20484;-76
2022/11/22 10:13:48;;;;;;;19.57;12.50;;;7.50;99.90;;;;;;4955271;28;20440;-78
2022/11/22 10:16:20;;;;;;;12.80;6.80;;;7.50;99.90;;;;;;4955704;28;20770;-78
2022/11/22 10:18:54;;;;;;;10.57;6.80;;;7.60;99.90;;;;;;4955406;28;20528;-77
2022/11/22 10:21:22;;;;;;;13.60;7.37;;;7.60;99.90;;;;;;4954854;28;20485;-78
2022/11/22 10:23:49;;;;;;;14.40;7.30;;;7.70;99.90;;;;;;4954015;28;20500;-78
2022/11/22 10:26:23;;;;;;;11.60;6.60;;;7.70;99.90;;;;;;4954392;28;20453;-76
2022/11/22 10:29:00;;;;;;;13.40;7.27;;;7.80;99.90;;;;;;4955224;28;20538;-77
2022/11/22 10:31:35;;;;;;;16.60;9.07;;;7.80;99.90;;;;;;4953989;28;20479;-78
2022/11/22 10:34:11;;;;;;;25.10;9.23;;;7.80;99.90;;;;;;4954627;28;20496;-75
2022/11/22 10:36:48;;;;;;;17.67;8.63;;;7.80;99.90;;;;;;4955718;28;20460;-78
2022/11/22 10:39:22;;;;;;;15.97;8.53;;;7.80;99.90;;;;;;4955759;28;20858;-78
2022/11/22 10:42:09;;;;;;;16.97;7.27;;;7.90;99.90;;;;;;4954948;28;20488;-78
2022/11/22 10:44:47;;;;;;;11.63;5.83;;;8.00;99.90;;;;;;4954955;28;20501;-78
2022/11/22 10:47:22;;;;;;;9.57;6.10;;;8.00;99.90;;;;;;4955791;28;20497;-79
2022/11/22 10:49:58;;;;;;;21.47;5.90;;;8.00;99.90;;;;;;4955144;28;20457;-78
2022/11/22 10:52:37;;;;;;;9.20;5.90;;;8.10;99.90;;;;;;4953879;28;20485;-75
2022/11/22 10:55:21;;;;;;;12.17;5.37;;;8.10;99.90;;;;;;4955074;28;20547;-75
2022/11/22 10:57:58;;;;;;;8.00;5.60;;;8.20;99.90;;;;;;4954794;28;20526;-78
2022/11/22 11:00:29;;;;;;;13.37;5.67;;;8.20;99.90;;;;;;4954852;28;20467;-78
2022/11/22 11:03:08;;;;;;;11.50;4.67;;;8.20;99.90;;;;;;4953747;28;20458;-78
2022/11/22 11:05:41;;;;;;;12.90;5.10;;;8.30;99.90;;;;;;4954851;28;20505;-78
2022/11/22 11:08:13;;;;;;;8.60;3.77;;;8.30;99.90;;;;;;4953688;28;20452;-78
2022/11/22 11:10:41;;;;;;;17.27;4.80;;;8.40;99.90;;;;;;4953306;28;20488;-77
2022/11/22 11:13:17;;;;;;;11.33;3.77;;;8.40;99.90;;;;;;4953894;28;20461;-77
2022/11/22 11:15:47;;;;;;;8.87;3.07;;;8.30;99.90;;;;;;4954375;28;20445;-79
2022/11/22 11:18:18;;;;;;;12.27;3.47;;;8.40;99.90;;;;;;4953052;28;20462;-79
2022/11/22 11:20:46;;;;;;;4.87;2.73;;;8.50;99.90;;;;;;4955106;28;20536;-78
2022/11/22 11:23:14;;;;;;;8.67;3.47;;;8.50;99.90;;;;;;4953155;28;20511;-78
2022/11/22 11:25:42;;;;;;;9.60;3.20;;;8.50;99.90;;;;;;4950737;28;21146;-76
2022/11/22 11:28:17;;;;;;;16.20;3.53;;;8.50;99.90;;;;;;4949523;28;20465;-77
2022/11/22 11:30:46;;;;;;;8.37;2.77;;;8.50;99.90;;;;;;4949018;28;20889;-76
2022/11/22 11:33:20;;;;;;;8.50;2.87;;;8.50;99.90;;;;;;4951456;28;20461;-77
2022/11/22 11:35:47;;;;;;;9.20;3.40;;;8.50;99.90;;;;;;4952157;28;20942;-79
2022/11/22 11:38:33;;;;;;;6.90;2.27;;;8.50;99.90;;;;;;4954959;28;20500;-79
2022/11/22 11:41:20;;;;;;;6.50;2.20;;;8.50;99.90;;;;;;4955827;28;20477;-78
2022/11/22 11:43:47;;;;;;;6.07;2.20;;;8.50;99.90;;;;;;4953254;28;20956;-79
2022/11/22 11:46:19;;;;;;;4.80;2.50;;;8.40;99.90;;;;;;4953479;28;20461;-77
2022/11/22 11:48:46;;;;;;;4.53;1.97;;;8.50;99.90;;;;;;4954141;28;20461;-79
2022/11/22 11:51:24;;;;;;;5.80;2.20;;;8.50;99.90;;;;;;4951522;28;20481;-79
2022/11/22 11:53:57;;;;;;;5.90;1.90;;;8.60;99.90;;;;;;4932249;29;20450;-77
2022/11/22 11:56:41;;;;;;;11.07;2.90;;;8.60;99.90;;;;;;4930766;29;20447;-78
2022/11/22 11:59:13;;;;;;;3.97;2.03;;;8.70;99.90;;;;;;4930111;29;20470;-78
2022/11/22 12:01:47;;;;;;;9.13;2.20;;;8.80;99.90;;;;;;4929301;29;20490;-78
2022/11/22 12:04:20;;;;;;;7.27;1.73;;;8.70;99.90;;;;;;4930875;29;20486;-78
2022/11/22 12:06:54;;;;;;;6.30;2.17;;;8.70;99.90;;;;;;4930724;29;20557;-78
2022/11/22 12:09:31;;;;;;;4.70;1.87;;;8.80;99.90;;;;;;4930926;29;20470;-79
2022/11/22 12:12:05;;;;;;;10.37;2.00;;;8.80;99.90;;;;;;4929578;29;20859;-78
2022/11/22 12:14:32;;;;;;;8.10;2.10;;;8.90;99.90;;;;;;4930582;29;20447;-77
2022/11/22 12:17:04;;;;;;;7.13;1.80;;;8.90;99.90;;;;;;4930484;29;20466;-78
2022/11/22 12:19:40;;;;;;;9.23;2.20;;;8.80;99.90;;;;;;4930603;29;20462;-78
2022/11/22 12:22:17;;;;;;;7.37;1.93;;;8.80;99.90;;;;;;4930337;29;20489;-78
2022/11/22 12:24:52;;;;;;;6.97;2.03;;;8.80;99.90;;;;;;4929928;29;20490;-78
2022/11/22 12:27:19;;;;;;;4.00;2.00;;;8.90;99.90;;;;;;4930715;29;20466;-78
2022/11/22 12:29:46;;;;;;;6.73;2.20;;;8.90;99.90;;;;;;4930518;29;20469;-78
2022/11/22 12:32:18;;;;;;;8.67;1.93;;;9.00;99.90;;;;;;4929784;29;20979;-78
2022/11/22 12:34:53;;;;;;;6.20;1.60;;;9.00;99.90;;;;;;4930165;29;20804;-79
2022/11/22 12:37:24;;;;;;;4.33;1.83;;;9.00;99.90;;;;;;4929904;29;20441;-78
2022/11/22 12:39:55;;;;;;;9.17;1.70;;;9.10;99.90;;;;;;4929363;29;20462;-79
2022/11/22 12:42:28;;;;;;;8.50;2.50;;;9.10;99.90;;;;;;4946687;28;20477;-78
2022/11/22 12:45:01;;;;;;;5.50;1.83;;;9.10;99.90;;;;;;4948325;28;20473;-79
2022/11/22 12:47:31;;;;;;;3.17;1.90;;;9.20;99.90;;;;;;4948404;28;20461;-78
2022/11/22 12:50:07;;;;;;;5.93;1.70;;;9.20;99.90;;;;;;4948611;28;21031;-79
2022/11/22 12:52:40;;;;;;;4.40;2.27;;;9.20;99.90;;;;;;4947644;28;20492;-77
2022/11/22 12:55:16;;;;;;;4.03;1.50;;;9.20;99.90;;;;;;4948967;28;20458;-77
2022/11/22 12:57:49;;;;;;;7.40;1.60;;;9.30;99.90;;;;;;4948951;28;20438;-77
2022/11/22 13:00:18;;;;;;;6.53;2.43;;;9.40;99.90;;;;;;4949215;28;20458;-79
2022/11/22 13:02:55;;;;;;;4.00;1.53;;;9.30;99.90;;;;;;4947678;28;20453;-77
2022/11/22 13:05:25;;;;;;;4.47;1.40;;;9.40;99.90;;;;;;4949911;28;20511;-75
2022/11/22 13:07:58;;;;;;;11.13;1.90;;;9.40;99.90;;;;;;4949616;28;21261;-75
2022/11/22 13:10:36;;;;;;;4.90;2.00;;;9.40;99.90;;;;;;4948013;28;20457;-76
2022/11/22 13:13:06;;;;;;;5.73;1.97;;;9.40;99.90;;;;;;4947021;28;20871;-76
2022/11/22 13:15:37;;;;;;;8.30;1.80;;;9.40;99.90;;;;;;4947200;28;20457;-76
2022/11/22 13:18:09;;;;;;;5.30;2.10;;;9.50;99.90;;;;;;4947062;28;20465;-75
2022/11/22 13:20:39;;;;;;;1.70;1.47;;;9.50;99.90;;;;;;4946586;28;20493;-75
2022/11/22 13:23:23;;;;;;;3.50;1.70;;;9.50;99.90;;;;;;4945392;28;20485;-76
2022/11/22 13:26:04;;;;;;;4.53;2.27;;;9.50;99.90;;;;;;4946641;28;20867;-77
2022/11/22 13:28:36;;;;;;;4.83;1.90;;;9.50;99.90;;;;;;4947202;28;21037;-75
2022/11/22 13:31:15;;;;;;;4.43;1.47;;;9.50;99.90;;;;;;4947754;28;20482;-76
2022/11/22 13:33:52;;;;;;;12.30;1.77;;;9.50;99.90;;;;;;4946032;28;20458;-76
2022/11/22 13:36:47;;;;;;;13.23;2.63;;;9.50;99.90;;;;;;4946703;28;20853;-73
2022/11/22 13:39:19;;;;;;;8.07;1.80;;;9.50;99.90;;;;;;4946596;28;20489;-76
2022/11/22 13:45:20;;;;;;;4.80;1.80;;;9.50;99.90;;;;;;5082115;28;21602;-75
2022/11/22 13:47:47;;;;;;;5.07;2.10;;;9.60;99.90;;;;;;5082242;28;20486;-77
2022/11/22 13:50:56;;;;;;;7.30;1.73;;;9.50;99.90;;;;;;5082665;28;20989;-77
2022/11/22 13:53:26;;;;;;;9.07;2.47;;;9.60;99.90;;;;;;5081246;28;21062;-77
2022/11/22 13:55:53;;;;;;;6.20;1.87;;;9.50;99.90;;;;;;5082285;28;20460;-78
2022/11/22 13:58:51;;;;;;;4.20;2.00;;;9.50;99.90;;;;;;5082850;28;20466;-77
2022/11/22 14:01:56;;;;;;;7.00;1.83;;;9.50;99.90;;;;;;5082508;28;20507;-77
2022/11/22 14:04:40;;;;;;;6.67;2.23;;;9.50;99.90;;;;;;5050804;28;21025;-77
2022/11/22 14:07:35;;;;;;;3.23;1.67;;;9.40;99.90;;;;;;5082821;28;20461;-78
2022/11/22 14:10:04;;;;;;;3.10;1.40;;;9.30;99.90;;;;;;5082008;28;20459;-77
2022/11/22 14:13:05;;;;;;;6.40;2.10;;;9.30;99.90;;;;;;5081662;28;20487;-77
2022/11/22 14:15:53;;;;;;;9.13;2.13;;;9.30;99.90;;;;;;5045971;28;20601;-77
2022/11/22 14:18:54;;;;;;;4.40;1.70;;;9.30;99.90;;;;;;5082532;28;20478;-77
2022/11/22 14:21:54;;;;;;;7.37;2.20;;;9.20;99.90;;;;;;5066585;28;20479;-76
2022/11/22 14:24:34;;;;;;;7.63;2.03;;;9.10;99.90;;;;;;5079549;28;20581;-76
2022/11/22 14:27:12;;;;;;;4.97;2.13;;;9.10;99.90;;;;;;5082534;28;20545;-77
2022/11/22 14:30:14;;;;;;;11.40;2.43;;;9.10;99.90;;;;;;5082376;28;20496;-77
2022/11/22 14:32:48;;;;;;;8.67;1.60;;;9.10;99.90;;;;;;5082221;28;20435;-81
2022/11/22 14:35:27;;;;;;;7.63;2.20;;;9.10;99.90;;;;;;5082987;28;20926;-77
2022/11/22 14:38:28;;;;;;;3.30;2.07;;;9.10;99.90;;;;;;5080840;28;20457;-78
2022/11/22 14:41:41;;;;;;;3.93;1.70;;;9.10;99.90;;;;;;5088918;28;20462;-78
2022/11/22 14:44:11;;;;;;;3.97;2.03;;;9.10;99.90;;;;;;5094266;28;20848;-77
2022/11/22 14:46:44;;;;;;;5.83;1.80;;;9.10;99.90;;;;;;5093985;28;20982;-76
2022/11/22 14:49:19;;;;;;;3.87;1.93;;;9.10;99.90;;;;;;5101529;28;20458;-77
2022/11/22 14:51:46;;;;;;;11.17;2.00;;;9.10;99.90;;;;;;5087439;28;20474;-76
2022/11/22 14:54:21;;;;;;;4.17;1.90;;;9.00;99.90;;;;;;5084289;28;20819;-77
2022/11/22 14:56:50;;;;;;;3.10;1.50;;;9.00;99.90;;;;;;5063634;28;20447;-77
2022/11/22 14:59:53;;;;;;;3.80;2.10;;;9.00;99.90;;;;;;5078540;28;20474;-77
2022/11/22 15:02:55;;;;;;;6.83;1.80;;;9.00;99.90;;;;;;5079169;28;20554;-77
2022/11/22 15:05:37;;;;;;;6.70;2.03;;;9.00;99.90;;;;;;5072451;28;20567;-76
2022/11/22 15:08:29;;;;;;;6.03;3.23;;;9.00;99.90;;;;;;5087693;28;20450;-78
2022/11/22 15:11:25;;;;;;;9.53;1.70;;;8.90;99.90;;;;;;5087734;28;20493;-77
2022/11/22 15:14:18;;;;;;;9.23;2.40;;;8.90;99.90;;;;;;5089517;28;20454;-77
2022/11/22 15:16:45;;;;;;;3.53;1.83;;;8.80;99.90;;;;;;5089652;28;20482;-78
2022/11/22 15:19:33;;;;;;;11.67;9.37;;;8.80;99.90;;;;;;5089204;28;20472;-78
2022/11/22 15:22:07;;;;;;;3.63;2.23;;;8.80;99.90;;;;;;5089566;28;20467;-76
2022/11/22 15:24:34;;;;;;;11.53;2.57;;;8.70;99.90;;;;;;5089249;28;20581;-77
2022/11/22 15:27:17;;;;;;;3.97;2.47;;;8.70;99.90;;;;;;5090453;28;20478;-76
2022/11/22 15:29:46;;;;;;;6.70;4.73;;;8.70;99.90;;;;;;5089262;28;20514;-77
2022/11/22 15:32:16;;;;;;;6.00;2.13;;;8.60;99.90;;;;;;5088729;28;20475;-77
2022/11/22 15:34:46;;;;;;;4.90;2.30;;;8.60;99.90;;;;;;5089654;28;20454;-77
2022/11/22 15:37:19;;;;;;;4.83;2.03;;;8.60;99.90;;;;;;5086594;28;20439;-77
2022/11/22 15:39:45;;;;;;;9.10;2.10;;;8.60;99.90;;;;;;5069736;28;20458;-77
2022/11/22 15:42:15;;;;;;;9.23;2.30;;;8.50;99.90;;;;;;5069056;28;20571;-77
2022/11/22 15:44:42;;;;;;;7.23;2.20;;;8.50;99.90;;;;;;5068815;28;20492;-78
2022/11/22 15:47:17;;;;;;;3.03;1.60;;;8.40;99.90;;;;;;5069482;28;20900;-77
2022/11/22 15:49:44;;;;;;;6.43;1.67;;;8.40;99.90;;;;;;5070110;28;20470;-78
2022/11/22 15:52:22;;;;;;;2.70;1.80;;;8.40;99.90;;;;;;5068192;28;20476;-77
2022/11/22 15:54:54;;;;;;;4.03;1.87;;;8.40;99.90;;;;;;5069383;28;20442;-77
2022/11/22 15:57:28;;;;;;;6.83;2.77;;;8.30;99.90;;;;;;5069992;28;20460;-76
2022/11/22 15:59:55;;;;;;;3.60;2.30;;;8.40;99.90;;;;;;5069570;28;20432;-76
2022/11/22 16:02:28;;;;;;;2.13;1.67;;;8.40;99.90;;;;;;5068490;28;20998;-77
2022/11/22 16:04:58;;;;;;;4.87;2.10;;;8.40;99.90;;;;;;5066983;28;20602;-77
2022/11/22 16:07:34;;;;;;;9.83;5.27;;;8.30;99.90;;;;;;5067234;28;20536;-77
2022/11/22 16:10:16;;;;;;;20.23;9.23;;;8.30;99.90;;;;;;5059534;28;20470;-75
2022/11/22 16:12:43;;;;;;;20.90;11.00;;;8.30;99.90;;;;;;5066004;28;20455;-79
2022/11/22 16:15:34;;;;;;;23.37;9.53;;;8.30;99.90;;;;;;5066964;28;21076;-75
2022/11/22 16:18:17;;;;;;;35.50;13.87;;;8.30;99.90;;;;;;5066658;28;20444;-75
2022/11/22 16:21:06;;;;;;;24.23;11.37;;;8.30;99.90;;;;;;5066041;28;21006;-75
2022/11/22 16:23:37;;;;;;;9.50;5.70;;;8.40;99.90;;;;;;5065968;28;20479;-75
2022/11/22 16:26:19;;;;;;;10.53;5.27;;;8.40;99.90;;;;;;5066469;28;21133;-75
2022/11/22 16:28:46;;;;;;;7.37;4.43;;;8.30;99.90;;;;;;5066434;28;20444;-75
2022/11/22 16:31:21;;;;;;;7.57;4.17;;;8.30;99.90;;;;;;5065842;28;20482;-74
2022/11/22 16:33:50;;;;;;;7.17;4.37;;;8.40;99.90;;;;;;5065875;28;20436;-75
2022/11/22 16:36:19;;;;;;;10.07;4.80;;;8.40;99.90;;;;;;5066194;28;20547;-75
2022/11/22 16:38:46;;;;;;;15.40;7.90;;;8.30;99.90;;;;;;5065971;28;21039;-75
2022/11/22 16:41:28;;;;;;;13.00;6.47;;;8.40;99.90;;;;;;5065783;28;20983;-75
2022/11/22 16:43:59;;;;;;;15.37;9.00;;;8.40;99.90;;;;;;5064761;28;20589;-75
2022/11/22 16:46:26;;;;;;;13.07;6.23;;;8.40;99.90;;;;;;5066018;28;20444;-75
2022/11/22 16:48:56;;;;;;;5.63;5.00;;;8.40;99.90;;;;;;5058688;28;20463;-74
2022/11/22 16:51:27;;;;;;;8.50;5.23;;;8.40;99.90;;;;;;5073142;28;20530;-75
2022/11/22 16:53:55;;;;;;;7.80;4.23;;;8.30;99.90;;;;;;5065491;28;20436;-77
2022/11/22 16:56:24;;;;;;;13.30;6.77;;;8.30;99.90;;;;;;5065845;28;20445;-78
2022/11/22 16:58:52;;;;;;;28.50;15.13;;;8.30;99.90;;;;;;5066019;28;20464;-76
2022/11/22 17:01:21;;;;;;;22.67;13.60;;;8.30;99.90;;;;;;5066304;28;20856;-76
2022/11/22 17:03:50;;;;;;;28.47;16.50;;;8.20;99.90;;;;;;5065013;28;20487;-75
2022/11/22 17:06:20;;;;;;;22.70;12.77;;;8.30;99.90;;;;;;5066071;28;20456;-76
2022/11/22 17:08:48;;;;;;;14.97;6.90;;;8.20;99.90;;;;;;5065804;28;20440;-75
2022/11/22 17:11:16;;;;;;;9.83;6.20;;;8.30;99.90;;;;;;5065613;28;20479;-75
2022/11/22 17:13:43;;;;;;;11.63;7.67;;;8.20;99.90;;;;;;5063958;28;20462;-75
2022/11/22 17:16:11;;;;;;;7.07;5.37;;;8.20;99.90;;;;;;5065075;28;20464;-75
2022/11/22 17:18:38;;;;;;;5.80;3.97;;;8.20;99.90;;;;;;5064853;28;20466;-75
2022/11/22 17:21:09;;;;;;;9.67;3.97;;;8.30;99.90;;;;;;5063884;28;20476;-75
2022/11/22 17:23:38;;;;;;;7.43;4.47;;;8.30;99.90;;;;;;5064071;28;20487;-75
2022/11/22 17:26:06;;;;;;;5.73;4.30;;;8.20;99.90;;;;;;5064862;28;20471;-75
2022/11/22 17:28:32;;;;;;;5.87;3.70;;;8.20;99.90;;;;;;5065486;28;20471;-76
2022/11/22 17:31:00;;;;;;;4.17;3.30;;;8.20;99.90;;;;;;5065512;28;20472;-76
2022/11/22 17:33:27;;;;;;;8.67;5.73;;;8.20;99.90;;;;;;5064356;28;20460;-75
2022/11/22 17:35:55;;;;;;;10.13;5.27;;;8.20;99.90;;;;;;5065254;28;20456;-76
2022/11/22 17:38:22;;;;;;;10.07;5.20;;;8.20;99.90;;;;;;5065791;28;20452;-76
2022/11/22 17:40:58;;;;;;;13.90;8.70;;;8.20;99.90;;;;;;5065274;28;20484;-76
2022/11/22 17:43:25;;;;;;;10.20;7.50;;;8.20;99.90;;;;;;5064100;28;20845;-76
2022/11/22 17:45:52;;;;;;;16.63;9.50;;;8.20;99.90;;;;;;5065484;28;20456;-75
2022/11/22 17:48:18;;;;;;;14.50;8.30;;;8.20;99.90;;;;;;5066092;28;20452;-78
2022/11/22 17:50:45;;;;;;;15.60;10.60;;;8.20;99.90;;;;;;5066574;28;20487;-77
2022/11/22 17:53:14;;;;;;;14.73;9.57;;;8.20;99.90;;;;;;5066098;28;20455;-76
2022/11/22 17:55:41;;;;;;;16.03;9.50;;;8.30;99.90;;;;;;5065932;28;20455;-76
2022/11/22 17:58:11;;;;;;;10.20;7.40;;;8.20;99.90;;;;;;5066105;28;20911;-77
2022/11/22 18:00:38;;;;;;;8.60;4.93;;;8.20;99.90;;;;;;5065985;28;21007;-77
2022/11/22 18:03:05;;;;;;;14.67;9.43;;;8.20;99.90;;;;;;5065645;28;20460;-77
2022/11/22 18:05:34;;;;;;;12.50;7.90;;;8.20;99.90;;;;;;5066828;28;20491;-77
2022/11/22 18:08:01;;;;;;;11.43;7.20;;;8.30;99.90;;;;;;5066429;28;20478;-77
2022/11/22 18:10:31;;;;;;;9.80;5.90;;;8.30;99.90;;;;;;5066914;28;20598;-77
2022/11/22 18:13:02;;;;;;;16.33;7.50;;;8.30;99.90;;;;;;5066309;28;20475;-76
2022/11/22 18:15:30;;;;;;;8.50;6.13;;;8.30;99.90;;;;;;5066501;28;20543;-77
2022/11/22 18:17:59;;;;;;;13.17;7.13;;;8.30;99.90;;;;;;5066215;28;20966;-77
2022/11/22 18:20:29;;;;;;;12.50;7.20;;;8.30;99.90;;;;;;5066759;28;20460;-77